sensor_id;sensor_type;location;lat;lon;timestamp;P1;durP1;ratioP1;P2;durP2;ratioP2
44606;SDS011;30315;46.072;14.474;2023-03-21T00:01:50;36.28;;;25.02;;
44606;SDS011;30315;46.072;14.474;2023-03-21T00:04:18;35.42;;;22.70;;
44606;SDS011;30315;46.072;14.474;2023-03-21T00:06:46;31.08;;;22.60;;
44606;SDS011;30315;46.072;14.474;2023-03-21T00:09:13;31.60;;;22.40;;
44606;SDS011;30315;46.072;14.474;2023-03-21T00:11:40;30.98;;;23.17;;
44606;SDS011;30315;46.072;14.474;2023-03-21T00:14:07;27.00;;;21.02;;
44606;SDS011;30315;46.072;14.474;2023-03-21T00:16:34;29.30;;;21.73;;
44606;SDS011;30315;46.072;14.474;2023-03-21T00:19:05;32.80;;;22.17;;
44606;SDS011;30315;46.072;14.474;2023-03-21T00:21:35;30.10;;;23.08;;
44606;SDS011;30315;46.072;14.474;2023-03-21T00:24:23;33.42;;;23.42;;
44606;SDS011;30315;46.072;14.474;2023-03-21T00:26:50;29.42;;;22.90;;
44606;SDS011;30315;46.072;14.474;2023-03-21T00:29:18;30.65;;;22.85;;
44606;SDS011;30315;46.072;14.474;2023-03-21T00:31:45;32.47;;;23.77;;
44606;SDS011;30315;46.072;14.474;2023-03-21T00:34:12;33.03;;;23.80;;
44606;SDS011;30315;46.072;14.474;2023-03-21T00:36:39;31.90;;;23.33;;
44606;SDS011;30315;46.072;14.474;2023-03-21T00:39:06;34.38;;;24.45;;
44606;SDS011;30315;46.072;14.474;2023-03-21T00:41:33;34.63;;;25.42;;
44606;SDS011;30315;46.072;14.474;2023-03-21T00:44:08;33.30;;;21.70;;
44606;SDS011;30315;46.072;14.474;2023-03-21T00:46:39;30.10;;;21.95;;
44606;SDS011;30315;46.072;14.474;2023-03-21T00:49:19;29.30;;;23.40;;
44606;SDS011;30315;46.072;14.474;2023-03-21T00:51:46;36.70;;;23.23;;
44606;SDS011;30315;46.072;14.474;2023-03-21T00:54:16;32.95;;;24.05;;
44606;SDS011;30315;46.072;14.474;2023-03-21T00:56:43;31.30;;;22.95;;
44606;SDS011;30315;46.072;14.474;2023-03-21T00:59:10;37.33;;;25.00;;
44606;SDS011;30315;46.072;14.474;2023-03-21T01:01:37;34.67;;;25.20;;
44606;SDS011;30315;46.072;14.474;2023-03-21T01:04:05;33.35;;;23.88;;
44606;SDS011;30315;46.072;14.474;2023-03-21T01:06:38;32.85;;;23.80;;
44606;SDS011;30315;46.072;14.474;2023-03-21T01:09:15;30.47;;;22.17;;
44606;SDS011;30315;46.072;14.474;2023-03-21T01:11:43;30.63;;;22.17;;
44606;SDS011;30315;46.072;14.474;2023-03-21T01:14:11;34.17;;;22.75;;
44606;SDS011;30315;46.072;14.474;2023-03-21T01:16:49;33.80;;;23.05;;
44606;SDS011;30315;46.072;14.474;2023-03-21T01:19:18;30.83;;;21.88;;
44606;SDS011;30315;46.072;14.474;2023-03-21T01:21:56;32.00;;;21.77;;
44606;SDS011;30315;46.072;14.474;2023-03-21T01:24:23;31.17;;;22.23;;
44606;SDS011;30315;46.072;14.474;2023-03-21T01:26:51;32.42;;;22.92;;
44606;SDS011;30315;46.072;14.474;2023-03-21T01:29:18;31.80;;;22.23;;
44606;SDS011;30315;46.072;14.474;2023-03-21T01:31:45;29.77;;;22.65;;
44606;SDS011;30315;46.072;14.474;2023-03-21T01:34:12;33.30;;;23.42;;
44606;SDS011;30315;46.072;14.474;2023-03-21T01:36:39;29.75;;;23.08;;
44606;SDS011;30315;46.072;14.474;2023-03-21T01:39:12;29.13;;;22.02;;
44606;SDS011;30315;46.072;14.474;2023-03-21T01:41:40;30.15;;;21.83;;
44606;SDS011;30315;46.072;14.474;2023-03-21T01:44:18;29.60;;;21.73;;
44606;SDS011;30315;46.072;14.474;2023-03-21T01:46:47;28.73;;;21.98;;
44606;SDS011;30315;46.072;14.474;2023-03-21T01:49:46;29.13;;;22.02;;
44606;SDS011;30315;46.072;14.474;2023-03-21T01:52:28;34.17;;;23.08;;
44606;SDS011;30315;46.072;14.474;2023-03-21T01:55:08;31.70;;;22.27;;
44606;SDS011;30315;46.072;14.474;2023-03-21T01:57:54;30.58;;;22.48;;
44606;SDS011;30315;46.072;14.474;2023-03-21T02:00:55;33.90;;;23.40;;
44606;SDS011;30315;46.072;14.474;2023-03-21T02:03:33;32.85;;;22.27;;
44606;SDS011;30315;46.072;14.474;2023-03-21T02:06:28;28.35;;;21.35;;
44606;SDS011;30315;46.072;14.474;2023-03-21T02:09:08;30.05;;;21.42;;
44606;SDS011;30315;46.072;14.474;2023-03-21T02:11:39;28.02;;;21.90;;
44606;SDS011;30315;46.072;14.474;2023-03-21T02:14:14;29.00;;;22.75;;
44606;SDS011;30315;46.072;14.474;2023-03-21T02:36:25;28.10;;;21.90;;
44606;SDS011;30315;46.072;14.474;2023-03-21T02:38:59;28.23;;;21.33;;
44606;SDS011;30315;46.072;14.474;2023-03-21T02:47:10;24.83;;;20.30;;
44606;SDS011;30315;46.072;14.474;2023-03-21T02:50:01;24.90;;;19.45;;
44606;SDS011;30315;46.072;14.474;2023-03-21T02:52:31;25.20;;;19.65;;
44606;SDS011;30315;46.072;14.474;2023-03-21T02:55:10;26.13;;;20.27;;
44606;SDS011;30315;46.072;14.474;2023-03-21T02:57:51;26.50;;;19.88;;
44606;SDS011;30315;46.072;14.474;2023-03-21T03:00:26;26.13;;;18.85;;
44606;SDS011;30315;46.072;14.474;2023-03-21T03:02:57;22.80;;;18.55;;
44606;SDS011;30315;46.072;14.474;2023-03-21T03:05:35;24.67;;;19.42;;
44606;SDS011;30315;46.072;14.474;2023-03-21T03:13:34;25.55;;;19.42;;
44606;SDS011;30315;46.072;14.474;2023-03-21T03:18:55;23.83;;;18.53;;
44606;SDS011;30315;46.072;14.474;2023-03-21T03:21:31;25.70;;;18.38;;
44606;SDS011;30315;46.072;14.474;2023-03-21T03:24:19;30.65;;;19.83;;
44606;SDS011;30315;46.072;14.474;2023-03-21T03:29:16;28.00;;;20.70;;
44606;SDS011;30315;46.072;14.474;2023-03-21T03:31:48;28.25;;;20.35;;
44606;SDS011;30315;46.072;14.474;2023-03-21T03:34:21;28.83;;;21.25;;
44606;SDS011;30315;46.072;14.474;2023-03-21T03:36:55;27.63;;;21.45;;
44606;SDS011;30315;46.072;14.474;2023-03-21T03:39:26;27.75;;;20.98;;
44606;SDS011;30315;46.072;14.474;2023-03-21T03:42:00;26.58;;;20.98;;
44606;SDS011;30315;46.072;14.474;2023-03-21T03:44:55;24.92;;;20.58;;
44606;SDS011;30315;46.072;14.474;2023-03-21T03:47:26;25.58;;;19.80;;
44606;SDS011;30315;46.072;14.474;2023-03-21T03:52:59;24.38;;;19.27;;
44606;SDS011;30315;46.072;14.474;2023-03-21T03:55:52;26.38;;;20.25;;
44606;SDS011;30315;46.072;14.474;2023-03-21T03:58:21;24.35;;;20.35;;
44606;SDS011;30315;46.072;14.474;2023-03-21T04:01:05;25.35;;;19.42;;
44606;SDS011;30315;46.072;14.474;2023-03-21T04:03:36;26.35;;;19.83;;
44606;SDS011;30315;46.072;14.474;2023-03-21T04:06:15;31.75;;;20.83;;
44606;SDS011;30315;46.072;14.474;2023-03-21T04:08:42;26.95;;;20.35;;
44606;SDS011;30315;46.072;14.474;2023-03-21T04:11:12;29.25;;;21.20;;
44606;SDS011;30315;46.072;14.474;2023-03-21T04:13:45;28.10;;;21.02;;
44606;SDS011;30315;46.072;14.474;2023-03-21T04:16:18;28.52;;;21.90;;
44606;SDS011;30315;46.072;14.474;2023-03-21T04:18:46;31.00;;;21.23;;
44606;SDS011;30315;46.072;14.474;2023-03-21T04:21:16;26.52;;;20.83;;
44606;SDS011;30315;46.072;14.474;2023-03-21T04:23:43;29.25;;;20.83;;
44606;SDS011;30315;46.072;14.474;2023-03-21T04:26:10;24.75;;;19.38;;
44606;SDS011;30315;46.072;14.474;2023-03-21T04:28:44;27.35;;;20.67;;
44606;SDS011;30315;46.072;14.474;2023-03-21T04:34:08;27.00;;;20.95;;
44606;SDS011;30315;46.072;14.474;2023-03-21T04:36:42;25.40;;;20.08;;
44606;SDS011;30315;46.072;14.474;2023-03-21T04:39:11;26.23;;;19.35;;
44606;SDS011;30315;46.072;14.474;2023-03-21T04:41:41;26.40;;;19.98;;
44606;SDS011;30315;46.072;14.474;2023-03-21T04:44:10;25.95;;;19.48;;
44606;SDS011;30315;46.072;14.474;2023-03-21T04:46:39;27.10;;;20.58;;
44606;SDS011;30315;46.072;14.474;2023-03-21T04:49:08;31.85;;;21.00;;
44606;SDS011;30315;46.072;14.474;2023-03-21T04:51:36;25.58;;;20.95;;
44606;SDS011;30315;46.072;14.474;2023-03-21T04:54:08;27.08;;;20.05;;
44606;SDS011;30315;46.072;14.474;2023-03-21T04:56:35;30.58;;;21.00;;
44606;SDS011;30315;46.072;14.474;2023-03-21T04:59:10;29.35;;;19.70;;
44606;SDS011;30315;46.072;14.474;2023-03-21T05:01:39;27.35;;;19.08;;
44606;SDS011;30315;46.072;14.474;2023-03-21T05:04:07;27.05;;;19.45;;
44606;SDS011;30315;46.072;14.474;2023-03-21T05:06:37;27.75;;;20.20;;
44606;SDS011;30315;46.072;14.474;2023-03-21T05:09:04;27.75;;;21.40;;
44606;SDS011;30315;46.072;14.474;2023-03-21T05:11:34;28.50;;;20.50;;
44606;SDS011;30315;46.072;14.474;2023-03-21T05:14:04;24.25;;;20.13;;
44606;SDS011;30315;46.072;14.474;2023-03-21T05:16:31;27.05;;;20.20;;
44606;SDS011;30315;46.072;14.474;2023-03-21T05:19:00;25.02;;;19.65;;
44606;SDS011;30315;46.072;14.474;2023-03-21T05:21:37;29.55;;;20.90;;
44606;SDS011;30315;46.072;14.474;2023-03-21T05:24:16;27.08;;;20.88;;
44606;SDS011;30315;46.072;14.474;2023-03-21T05:26:45;30.77;;;21.15;;
44606;SDS011;30315;46.072;14.474;2023-03-21T05:29:17;30.35;;;20.67;;
44606;SDS011;30315;46.072;14.474;2023-03-21T05:31:51;32.13;;;22.98;;
44606;SDS011;30315;46.072;14.474;2023-03-21T05:34:19;26.55;;;20.85;;
44606;SDS011;30315;46.072;14.474;2023-03-21T05:36:46;26.15;;;21.10;;
44606;SDS011;30315;46.072;14.474;2023-03-21T05:39:14;26.20;;;20.38;;
44606;SDS011;30315;46.072;14.474;2023-03-21T05:41:49;24.73;;;19.88;;
44606;SDS011;30315;46.072;14.474;2023-03-21T05:44:16;29.20;;;19.27;;
44606;SDS011;30315;46.072;14.474;2023-03-21T05:46:43;29.98;;;20.52;;
44606;SDS011;30315;46.072;14.474;2023-03-21T05:49:11;25.05;;;21.30;;
44606;SDS011;30315;46.072;14.474;2023-03-21T05:51:39;26.20;;;21.67;;
44606;SDS011;30315;46.072;14.474;2023-03-21T05:54:07;27.85;;;20.77;;
44606;SDS011;30315;46.072;14.474;2023-03-21T05:56:34;27.65;;;21.33;;
44606;SDS011;30315;46.072;14.474;2023-03-21T05:59:04;29.85;;;22.52;;
44606;SDS011;30315;46.072;14.474;2023-03-21T06:01:36;29.58;;;22.38;;
44606;SDS011;30315;46.072;14.474;2023-03-21T06:04:09;30.13;;;21.45;;
44606;SDS011;30315;46.072;14.474;2023-03-21T06:06:38;28.17;;;21.00;;
44606;SDS011;30315;46.072;14.474;2023-03-21T06:09:05;29.38;;;22.13;;
44606;SDS011;30315;46.072;14.474;2023-03-21T06:11:33;27.88;;;22.40;;
44606;SDS011;30315;46.072;14.474;2023-03-21T06:14:20;29.83;;;22.38;;
44606;SDS011;30315;46.072;14.474;2023-03-21T06:17:04;32.33;;;21.90;;
44606;SDS011;30315;46.072;14.474;2023-03-21T06:19:35;27.58;;;20.77;;
44606;SDS011;30315;46.072;14.474;2023-03-21T06:22:06;27.73;;;21.20;;
44606;SDS011;30315;46.072;14.474;2023-03-21T06:24:37;25.88;;;21.05;;
44606;SDS011;30315;46.072;14.474;2023-03-21T06:27:05;32.72;;;21.20;;
44606;SDS011;30315;46.072;14.474;2023-03-21T06:29:46;57.10;;;33.70;;
44606;SDS011;30315;46.072;14.474;2023-03-21T06:32:13;61.80;;;36.15;;
44606;SDS011;30315;46.072;14.474;2023-03-21T06:34:43;52.47;;;34.53;;
44606;SDS011;30315;46.072;14.474;2023-03-21T06:37:13;47.78;;;31.85;;
44606;SDS011;30315;46.072;14.474;2023-03-21T06:39:42;37.53;;;27.55;;
44606;SDS011;30315;46.072;14.474;2023-03-21T06:42:09;35.92;;;24.73;;
44606;SDS011;30315;46.072;14.474;2023-03-21T06:44:39;30.05;;;23.98;;
44606;SDS011;30315;46.072;14.474;2023-03-21T06:47:11;31.17;;;24.50;;
44606;SDS011;30315;46.072;14.474;2023-03-21T06:49:40;32.30;;;23.65;;
44606;SDS011;30315;46.072;14.474;2023-03-21T06:52:10;32.60;;;25.10;;
44606;SDS011;30315;46.072;14.474;2023-03-21T06:54:37;30.23;;;23.98;;
44606;SDS011;30315;46.072;14.474;2023-03-21T06:57:13;30.88;;;24.05;;
44606;SDS011;30315;46.072;14.474;2023-03-21T06:59:40;32.97;;;22.45;;
44606;SDS011;30315;46.072;14.474;2023-03-21T07:02:12;31.75;;;24.92;;
44606;SDS011;30315;46.072;14.474;2023-03-21T07:04:54;31.52;;;23.20;;
44606;SDS011;30315;46.072;14.474;2023-03-21T07:07:25;31.63;;;22.95;;
44606;SDS011;30315;46.072;14.474;2023-03-21T07:09:54;30.60;;;23.63;;
44606;SDS011;30315;46.072;14.474;2023-03-21T07:12:22;28.55;;;23.42;;
44606;SDS011;30315;46.072;14.474;2023-03-21T07:15:04;29.02;;;22.88;;
44606;SDS011;30315;46.072;14.474;2023-03-21T07:17:35;27.17;;;21.65;;
44606;SDS011;30315;46.072;14.474;2023-03-21T07:20:02;34.83;;;23.95;;
44606;SDS011;30315;46.072;14.474;2023-03-21T07:22:34;34.70;;;23.08;;
44606;SDS011;30315;46.072;14.474;2023-03-21T07:25:01;29.77;;;23.00;;
44606;SDS011;30315;46.072;14.474;2023-03-21T07:27:36;25.90;;;22.17;;
44606;SDS011;30315;46.072;14.474;2023-03-21T07:32:34;31.55;;;24.00;;
44606;SDS011;30315;46.072;14.474;2023-03-21T07:35:04;29.95;;;23.77;;
44606;SDS011;30315;46.072;14.474;2023-03-21T07:37:37;33.45;;;25.38;;
44606;SDS011;30315;46.072;14.474;2023-03-21T07:40:06;34.90;;;24.30;;
44606;SDS011;30315;46.072;14.474;2023-03-21T07:42:39;30.60;;;23.42;;
44606;SDS011;30315;46.072;14.474;2023-03-21T07:45:08;36.25;;;24.40;;
44606;SDS011;30315;46.072;14.474;2023-03-21T07:47:38;30.88;;;24.13;;
44606;SDS011;30315;46.072;14.474;2023-03-21T07:50:05;31.92;;;23.77;;
44606;SDS011;30315;46.072;14.474;2023-03-21T07:52:32;31.48;;;23.42;;
44606;SDS011;30315;46.072;14.474;2023-03-21T07:54:59;27.70;;;23.13;;
44606;SDS011;30315;46.072;14.474;2023-03-21T07:57:26;27.67;;;22.30;;
44606;SDS011;30315;46.072;14.474;2023-03-21T07:59:53;28.95;;;22.92;;
44606;SDS011;30315;46.072;14.474;2023-03-21T08:02:20;28.13;;;22.25;;
44606;SDS011;30315;46.072;14.474;2023-03-21T08:04:47;30.48;;;23.40;;
44606;SDS011;30315;46.072;14.474;2023-03-21T08:07:14;26.42;;;22.05;;
44606;SDS011;30315;46.072;14.474;2023-03-21T08:09:41;29.10;;;22.75;;
44606;SDS011;30315;46.072;14.474;2023-03-21T08:12:10;28.23;;;22.10;;
44606;SDS011;30315;46.072;14.474;2023-03-21T08:14:38;28.27;;;22.77;;
44606;SDS011;30315;46.072;14.474;2023-03-21T08:17:05;27.75;;;22.42;;
44606;SDS011;30315;46.072;14.474;2023-03-21T08:19:34;27.42;;;22.73;;
44606;SDS011;30315;46.072;14.474;2023-03-21T08:22:02;30.43;;;24.20;;
44606;SDS011;30315;46.072;14.474;2023-03-21T08:24:30;29.42;;;22.67;;
44606;SDS011;30315;46.072;14.474;2023-03-21T08:27:00;29.10;;;22.90;;
44606;SDS011;30315;46.072;14.474;2023-03-21T08:29:27;28.80;;;22.48;;
44606;SDS011;30315;46.072;14.474;2023-03-21T08:31:54;29.27;;;22.63;;
44606;SDS011;30315;46.072;14.474;2023-03-21T08:34:21;28.50;;;22.15;;
44606;SDS011;30315;46.072;14.474;2023-03-21T08:36:48;31.05;;;23.35;;
44606;SDS011;30315;46.072;14.474;2023-03-21T08:39:15;26.73;;;21.60;;
44606;SDS011;30315;46.072;14.474;2023-03-21T08:41:42;24.88;;;22.20;;
44606;SDS011;30315;46.072;14.474;2023-03-21T08:44:09;26.08;;;20.77;;
44606;SDS011;30315;46.072;14.474;2023-03-21T08:46:36;26.50;;;20.02;;
44606;SDS011;30315;46.072;14.474;2023-03-21T08:49:03;25.15;;;21.17;;
44606;SDS011;30315;46.072;14.474;2023-03-21T08:51:30;26.55;;;21.52;;
44606;SDS011;30315;46.072;14.474;2023-03-21T08:53:58;27.17;;;21.23;;
44606;SDS011;30315;46.072;14.474;2023-03-21T08:56:25;30.77;;;23.20;;
44606;SDS011;30315;46.072;14.474;2023-03-21T08:58:52;24.50;;;20.38;;
44606;SDS011;30315;46.072;14.474;2023-03-21T09:01:19;25.85;;;21.63;;
44606;SDS011;30315;46.072;14.474;2023-03-21T09:03:46;24.77;;;21.25;;
44606;SDS011;30315;46.072;14.474;2023-03-21T09:06:13;29.27;;;20.55;;
44606;SDS011;30315;46.072;14.474;2023-03-21T09:08:41;25.25;;;19.80;;
44606;SDS011;30315;46.072;14.474;2023-03-21T09:11:09;27.92;;;21.38;;
44606;SDS011;30315;46.072;14.474;2023-03-21T09:13:36;26.40;;;20.80;;
44606;SDS011;30315;46.072;14.474;2023-03-21T09:16:03;26.02;;;19.40;;
44606;SDS011;30315;46.072;14.474;2023-03-21T09:18:30;24.90;;;20.88;;
44606;SDS011;30315;46.072;14.474;2023-03-21T09:21:15;23.10;;;19.25;;
44606;SDS011;30315;46.072;14.474;2023-03-21T09:23:43;27.27;;;20.23;;
44606;SDS011;30315;46.072;14.474;2023-03-21T09:26:11;22.38;;;19.75;;
44606;SDS011;30315;46.072;14.474;2023-03-21T09:28:39;21.45;;;19.15;;
44606;SDS011;30315;46.072;14.474;2023-03-21T09:31:06;25.55;;;19.10;;
44606;SDS011;30315;46.072;14.474;2023-03-21T09:33:37;22.60;;;19.42;;
44606;SDS011;30315;46.072;14.474;2023-03-21T09:36:08;18.70;;;16.67;;
44606;SDS011;30315;46.072;14.474;2023-03-21T09:38:44;23.58;;;17.42;;
44606;SDS011;30315;46.072;14.474;2023-03-21T09:44:14;22.23;;;16.13;;
44606;SDS011;30315;46.072;14.474;2023-03-21T09:47:05;18.45;;;15.13;;
44606;SDS011;30315;46.072;14.474;2023-03-21T09:49:45;19.17;;;15.00;;
44606;SDS011;30315;46.072;14.474;2023-03-21T09:52:23;18.05;;;16.13;;
44606;SDS011;30315;46.072;14.474;2023-03-21T09:54:58;17.20;;;15.45;;
44606;SDS011;30315;46.072;14.474;2023-03-21T09:57:39;20.45;;;16.60;;
44606;SDS011;30315;46.072;14.474;2023-03-21T10:00:12;17.95;;;15.43;;
44606;SDS011;30315;46.072;14.474;2023-03-21T10:02:49;19.60;;;15.93;;
44606;SDS011;30315;46.072;14.474;2023-03-21T10:05:23;17.80;;;15.52;;
44606;SDS011;30315;46.072;14.474;2023-03-21T10:07:57;17.52;;;15.02;;
44606;SDS011;30315;46.072;14.474;2023-03-21T10:10:49;18.23;;;15.23;;
44606;SDS011;30315;46.072;14.474;2023-03-21T10:13:20;19.40;;;15.02;;
44606;SDS011;30315;46.072;14.474;2023-03-21T10:15:59;19.92;;;15.30;;
44606;SDS011;30315;46.072;14.474;2023-03-21T10:18:34;19.15;;;13.60;;
44606;SDS011;30315;46.072;14.474;2023-03-21T10:21:02;16.20;;;13.95;;
44606;SDS011;30315;46.072;14.474;2023-03-21T10:23:30;14.43;;;12.98;;
44606;SDS011;30315;46.072;14.474;2023-03-21T10:25:58;19.42;;;12.25;;
44606;SDS011;30315;46.072;14.474;2023-03-21T10:28:32;14.43;;;12.05;;
44606;SDS011;30315;46.072;14.474;2023-03-21T10:31:18;14.20;;;12.13;;
44606;SDS011;30315;46.072;14.474;2023-03-21T10:33:51;12.88;;;11.57;;
44606;SDS011;30315;46.072;14.474;2023-03-21T10:36:28;15.95;;;11.32;;
44606;SDS011;30315;46.072;14.474;2023-03-21T10:39:00;11.77;;;10.55;;
44606;SDS011;30315;46.072;14.474;2023-03-21T10:41:31;18.60;;;12.38;;
44606;SDS011;30315;46.072;14.474;2023-03-21T10:44:09;12.90;;;11.05;;
44606;SDS011;30315;46.072;14.474;2023-03-21T10:46:52;12.48;;;10.85;;
44606;SDS011;30315;46.072;14.474;2023-03-21T10:49:24;13.52;;;11.52;;
44606;SDS011;30315;46.072;14.474;2023-03-21T10:51:52;11.90;;;10.75;;
44606;SDS011;30315;46.072;14.474;2023-03-21T10:54:25;12.30;;;10.65;;
44606;SDS011;30315;46.072;14.474;2023-03-21T10:57:08;11.18;;;10.00;;
44606;SDS011;30315;46.072;14.474;2023-03-21T10:59:42;11.07;;;9.98;;
44606;SDS011;30315;46.072;14.474;2023-03-21T11:02:17;10.82;;;9.82;;
44606;SDS011;30315;46.072;14.474;2023-03-21T11:04:49;10.32;;;9.43;;
44606;SDS011;30315;46.072;14.474;2023-03-21T11:07:19;11.13;;;9.93;;
44606;SDS011;30315;46.072;14.474;2023-03-21T11:12:55;10.93;;;9.90;;
44606;SDS011;30315;46.072;14.474;2023-03-21T11:15:28;11.63;;;9.73;;
44606;SDS011;30315;46.072;14.474;2023-03-21T11:18:21;13.82;;;8.93;;
44606;SDS011;30315;46.072;14.474;2023-03-21T11:20:57;9.63;;;8.68;;
44606;SDS011;30315;46.072;14.474;2023-03-21T11:23:29;10.52;;;8.43;;
44606;SDS011;30315;46.072;14.474;2023-03-21T11:25:59;9.05;;;8.23;;
44606;SDS011;30315;46.072;14.474;2023-03-21T11:28:40;8.60;;;7.80;;
44606;SDS011;30315;46.072;14.474;2023-03-21T11:31:07;8.20;;;7.40;;
44606;SDS011;30315;46.072;14.474;2023-03-21T11:33:36;9.50;;;8.60;;
44606;SDS011;30315;46.072;14.474;2023-03-21T11:38:48;10.48;;;8.05;;
44606;SDS011;30315;46.072;14.474;2023-03-21T11:41:32;8.38;;;7.57;;
44606;SDS011;30315;46.072;14.474;2023-03-21T11:44:00;37.42;;;13.80;;
44606;SDS011;30315;46.072;14.474;2023-03-21T11:46:30;106.00;;;30.15;;
44606;SDS011;30315;46.072;14.474;2023-03-21T11:48:58;18.73;;;10.35;;
44606;SDS011;30315;46.072;14.474;2023-03-21T11:57:23;31.13;;;15.50;;
44606;SDS011;30315;46.072;14.474;2023-03-21T12:00:11;8.90;;;8.10;;
44606;SDS011;30315;46.072;14.474;2023-03-21T12:06:01;6.57;;;5.97;;
44606;SDS011;30315;46.072;14.474;2023-03-21T12:11:39;5.53;;;5.03;;
44606;SDS011;30315;46.072;14.474;2023-03-21T12:17:47;4.93;;;4.57;;
44606;SDS011;30315;46.072;14.474;2023-03-21T12:20:35;4.35;;;3.95;;
44606;SDS011;30315;46.072;14.474;2023-03-21T12:39:38;4.68;;;4.20;;
44606;SDS011;30315;46.072;14.474;2023-03-21T12:44:36;3.03;;;2.70;;
44606;SDS011;30315;46.072;14.474;2023-03-21T12:47:12;3.03;;;2.72;;
44606;SDS011;30315;46.072;14.474;2023-03-21T12:49:46;3.00;;;2.80;;
44606;SDS011;30315;46.072;14.474;2023-03-21T12:54:55;3.00;;;2.70;;
44606;SDS011;30315;46.072;14.474;2023-03-21T12:57:34;4.28;;;2.65;;
44606;SDS011;30315;46.072;14.474;2023-03-21T13:02:52;2.20;;;2.10;;
44606;SDS011;30315;46.072;14.474;2023-03-21T13:08:00;1.90;;;1.80;;
44606;SDS011;30315;46.072;14.474;2023-03-21T13:10:33;2.10;;;1.90;;
44606;SDS011;30315;46.072;14.474;2023-03-21T13:13:08;2.00;;;1.80;;
44606;SDS011;30315;46.072;14.474;2023-03-21T13:15:58;2.42;;;2.22;;
44606;SDS011;30315;46.072;14.474;2023-03-21T13:21:00;2.60;;;2.08;;
44606;SDS011;30315;46.072;14.474;2023-03-21T13:23:37;2.30;;;2.10;;
44606;SDS011;30315;46.072;14.474;2023-03-21T13:26:10;2.60;;;2.05;;
44606;SDS011;30315;46.072;14.474;2023-03-21T13:28:38;3.08;;;1.90;;
44606;SDS011;30315;46.072;14.474;2023-03-21T13:33:47;7.03;;;5.22;;
44606;SDS011;30315;46.072;14.474;2023-03-21T13:36:24;2.20;;;2.00;;
44606;SDS011;30315;46.072;14.474;2023-03-21T13:38:59;1.77;;;1.67;;
44606;SDS011;30315;46.072;14.474;2023-03-21T13:41:40;2.67;;;1.70;;
44606;SDS011;30315;46.072;14.474;2023-03-21T13:44:37;1.90;;;1.80;;
44606;SDS011;30315;46.072;14.474;2023-03-21T13:55:30;3.05;;;1.40;;
44606;SDS011;30315;46.072;14.474;2023-03-21T14:01:12;2.60;;;2.40;;
44606;SDS011;30315;46.072;14.474;2023-03-21T14:03:46;2.33;;;2.13;;
44606;SDS011;30315;46.072;14.474;2023-03-21T14:06:14;2.42;;;2.30;;
44606;SDS011;30315;46.072;14.474;2023-03-21T14:08:44;4.60;;;4.20;;
44606;SDS011;30315;46.072;14.474;2023-03-21T14:11:17;4.70;;;2.72;;
44606;SDS011;30315;46.072;14.474;2023-03-21T14:13:45;2.72;;;2.53;;
44606;SDS011;30315;46.072;14.474;2023-03-21T14:16:17;3.08;;;2.00;;
44606;SDS011;30315;46.072;14.474;2023-03-21T14:18:51;2.33;;;1.90;;
44606;SDS011;30315;46.072;14.474;2023-03-21T14:21:22;2.45;;;1.90;;
44606;SDS011;30315;46.072;14.474;2023-03-21T14:24:10;1.85;;;1.75;;
44606;SDS011;30315;46.072;14.474;2023-03-21T14:26:40;1.90;;;1.80;;
44606;SDS011;30315;46.072;14.474;2023-03-21T14:29:16;1.80;;;1.70;;
44606;SDS011;30315;46.072;14.474;2023-03-21T14:31:58;1.95;;;1.67;;
44606;SDS011;30315;46.072;14.474;2023-03-21T14:34:26;3.05;;;2.20;;
44606;SDS011;30315;46.072;14.474;2023-03-21T14:36:59;2.50;;;2.17;;
44606;SDS011;30315;46.072;14.474;2023-03-21T14:39:27;2.08;;;1.98;;
44606;SDS011;30315;46.072;14.474;2023-03-21T14:42:09;2.38;;;2.17;;
44606;SDS011;30315;46.072;14.474;2023-03-21T14:44:39;2.85;;;2.40;;
44606;SDS011;30315;46.072;14.474;2023-03-21T14:47:21;3.13;;;2.13;;
44606;SDS011;30315;46.072;14.474;2023-03-21T14:49:51;2.30;;;2.10;;
44606;SDS011;30315;46.072;14.474;2023-03-21T14:52:25;3.15;;;2.40;;
44606;SDS011;30315;46.072;14.474;2023-03-21T14:54:57;2.30;;;2.10;;
44606;SDS011;30315;46.072;14.474;2023-03-21T14:59:59;2.15;;;1.85;;
44606;SDS011;30315;46.072;14.474;2023-03-21T15:02:37;3.72;;;2.00;;
44606;SDS011;30315;46.072;14.474;2023-03-21T15:05:08;3.38;;;2.35;;
44606;SDS011;30315;46.072;14.474;2023-03-21T15:07:53;2.50;;;2.30;;
44606;SDS011;30315;46.072;14.474;2023-03-21T15:10:26;2.28;;;2.10;;
44606;SDS011;30315;46.072;14.474;2023-03-21T15:12:57;2.42;;;2.28;;
44606;SDS011;30315;46.072;14.474;2023-03-21T15:15:27;2.47;;;2.28;;
44606;SDS011;30315;46.072;14.474;2023-03-21T15:17:59;2.00;;;1.90;;
44606;SDS011;30315;46.072;14.474;2023-03-21T15:20:30;1.80;;;1.70;;
44606;SDS011;30315;46.072;14.474;2023-03-21T15:23:02;2.67;;;2.05;;
44606;SDS011;30315;46.072;14.474;2023-03-21T15:25:36;4.40;;;2.10;;
44606;SDS011;30315;46.072;14.474;2023-03-21T15:28:13;3.90;;;3.08;;
44606;SDS011;30315;46.072;14.474;2023-03-21T15:30:48;5.75;;;3.35;;
44606;SDS011;30315;46.072;14.474;2023-03-21T15:33:17;3.25;;;2.95;;
44606;SDS011;30315;46.072;14.474;2023-03-21T15:35:48;4.13;;;3.00;;
44606;SDS011;30315;46.072;14.474;2023-03-21T15:54:49;2.63;;;2.30;;
44606;SDS011;30315;46.072;14.474;2023-03-21T15:57:22;2.72;;;2.53;;
44606;SDS011;30315;46.072;14.474;2023-03-21T15:59:52;3.90;;;3.05;;
44606;SDS011;30315;46.072;14.474;2023-03-21T16:02:22;2.03;;;1.92;;
44606;SDS011;30315;46.072;14.474;2023-03-21T16:05:02;2.35;;;2.15;;
44606;SDS011;30315;46.072;14.474;2023-03-21T16:07:46;2.30;;;2.03;;
44606;SDS011;30315;46.072;14.474;2023-03-21T16:10:36;2.35;;;2.20;;
44606;SDS011;30315;46.072;14.474;2023-03-21T16:13:04;2.28;;;2.17;;
44606;SDS011;30315;46.072;14.474;2023-03-21T16:15:32;2.50;;;2.10;;
44606;SDS011;30315;46.072;14.474;2023-03-21T16:18:00;2.50;;;2.30;;
44606;SDS011;30315;46.072;14.474;2023-03-21T16:20:33;2.38;;;2.17;;
44606;SDS011;30315;46.072;14.474;2023-03-21T16:23:02;3.72;;;2.50;;
44606;SDS011;30315;46.072;14.474;2023-03-21T16:25:29;3.75;;;2.90;;
44606;SDS011;30315;46.072;14.474;2023-03-21T16:27:58;2.60;;;2.35;;
44606;SDS011;30315;46.072;14.474;2023-03-21T16:30:25;3.13;;;2.40;;
44606;SDS011;30315;46.072;14.474;2023-03-21T16:32:52;3.42;;;1.95;;
44606;SDS011;30315;46.072;14.474;2023-03-21T16:35:19;2.63;;;2.40;;
44606;SDS011;30315;46.072;14.474;2023-03-21T16:37:48;2.45;;;2.25;;
44606;SDS011;30315;46.072;14.474;2023-03-21T16:40:21;4.10;;;2.30;;
44606;SDS011;30315;46.072;14.474;2023-03-21T16:43:02;2.15;;;2.00;;
44606;SDS011;30315;46.072;14.474;2023-03-21T16:45:29;2.47;;;2.28;;
44606;SDS011;30315;46.072;14.474;2023-03-21T16:47:57;4.65;;;2.60;;
44606;SDS011;30315;46.072;14.474;2023-03-21T16:50:32;3.92;;;2.30;;
44606;SDS011;30315;46.072;14.474;2023-03-21T16:53:07;2.55;;;2.35;;
44606;SDS011;30315;46.072;14.474;2023-03-21T16:55:35;4.63;;;2.33;;
44606;SDS011;30315;46.072;14.474;2023-03-21T16:58:03;4.57;;;2.88;;